Terminal Aerodrome Forecast
Issued by NWS

Home | Current Version | Previous Version | Text Only | Print | Product List | Glossary On
Versions: 1 2 3 4 5 6 7 8 9
722
FTUS45 KPSR 232324
TAFIPL
TAF
KIPL 232324Z 2400/2424 26020G28KT P6SM SCT250
     FM240900 26012KT P6SM FEW250
     FM241200 27010KT P6SM FEW250=

USA.gov is the U.S. government's official web portal to all federal, state and local government web resources and services.